Time;durP1;ratioP1;P1;durP2;ratioP2;P2;SDS_P1;SDS_P2;PMS_P1;PMS_P2;Temp;Humidity;BMP_temperature;BMP_pressure;BME280_temperature;BME280_humidity;BME280_pressure;Samples;Min_cycle;Max_cycle;Signal;HPM_P1;HPM_P2
2023/08/21 00:00:49;;;;;;;7.75;3.85;;;;;;;19.89;100.00;102200.13;5045483;28;20076;-74
2023/08/21 00:03:15;;;;;;;7.50;3.95;;;;;;;19.86;100.00;102200.38;5045655;28;20634;-74
2023/08/21 00:05:40;;;;;;;12.30;4.95;;;;;;;19.82;100.00;102208.84;5045879;28;20045;-73
2023/08/21 00:08:06;;;;;;;11.15;4.03;;;;;;;19.73;100.00;102206.88;5040948;28;20053;-74
2023/08/21 00:10:32;;;;;;;11.48;4.60;;;;;;;19.79;100.00;102212.69;5041017;28;20084;-74
2023/08/21 00:12:58;;;;;;;11.90;4.70;;;;;;;19.88;100.00;102216.47;5034540;28;20062;-73
2023/08/21 00:15:24;;;;;;;10.52;4.40;;;;;;;19.97;100.00;102225.69;5042806;28;20902;-75
2023/08/21 00:17:49;;;;;;;6.93;4.25;;;;;;;19.97;100.00;102213.03;5042430;28;21023;-74
2023/08/21 00:20:15;;;;;;;13.35;5.10;;;;;;;20.07;100.00;102215.84;5067118;28;20033;-73
2023/08/21 00:22:41;;;;;;;7.72;4.72;;;;;;;20.07;100.00;102223.97;5049001;28;20069;-73
2023/08/21 00:25:07;;;;;;;8.48;4.82;;;;;;;20.14;100.00;102226.06;5049190;28;20430;-74
2023/08/21 00:27:32;;;;;;;8.82;4.20;;;;;;;20.04;100.00;102225.09;5048420;28;20809;-74
2023/08/21 00:30:00;;;;;;;14.63;4.72;;;;;;;20.13;100.00;102215.34;5039933;28;20038;-74
2023/08/21 00:32:25;;;;;;;12.50;5.35;;;;;;;20.14;100.00;102214.38;5071084;28;20906;-74
2023/08/21 00:34:51;;;;;;;12.60;4.82;;;;;;;20.21;100.00;102214.72;5045024;28;20070;-72
2023/08/21 00:37:18;;;;;;;9.20;4.50;;;;;;;20.27;100.00;102208.78;5045547;28;20037;-74
2023/08/21 00:39:45;;;;;;;10.77;4.72;;;;;;;20.21;100.00;102207.44;5073724;28;20033;-74
2023/08/21 00:42:10;;;;;;;13.50;4.40;;;;;;;20.15;100.00;102207.97;5039788;28;20566;-74
2023/08/21 00:44:36;;;;;;;8.75;4.47;;;;;;;20.09;100.00;102211.19;5039790;28;20034;-74
2023/08/21 00:47:02;;;;;;;12.95;4.50;;;;;;;20.02;100.00;102213.50;5038094;28;20531;-74
2023/08/21 00:49:27;;;;;;;11.35;4.32;;;;;;;19.90;100.00;102206.41;5031908;28;20234;-74
2023/08/21 00:51:53;;;;;;;11.23;5.20;;;;;;;19.91;100.00;102208.13;5033315;28;20899;-73
2023/08/21 00:54:19;;;;;;;9.05;4.63;;;;;;;19.78;100.00;102207.38;5033661;28;21230;-73
2023/08/21 00:56:45;;;;;;;10.90;4.55;;;;;;;19.76;100.00;102209.34;5026018;28;20042;-73
2023/08/21 00:59:12;;;;;;;9.73;4.43;;;;;;;19.83;100.00;102211.47;5030076;28;20074;-73
2023/08/21 01:01:38;;;;;;;9.18;4.55;;;;;;;19.87;100.00;102210.19;5028927;28;20065;-74
2023/08/21 01:04:04;;;;;;;12.88;5.00;;;;;;;20.02;100.00;102208.09;5029047;28;20045;-75
2023/08/21 01:06:30;;;;;;;9.05;4.65;;;;;;;20.11;100.00;102211.91;5022656;28;20176;-73
2023/08/21 01:09:17;;;;;;;12.65;5.10;;;;;;;20.17;100.00;102205.97;5027790;28;20053;-74
2023/08/21 01:11:55;;;;;;;9.93;5.90;;;;;;;20.18;100.00;102207.69;5036555;28;20147;-73
2023/08/21 01:14:50;;;;;;;12.90;5.45;;;;;;;20.16;100.00;102207.81;5030788;28;20159;-74
2023/08/21 01:17:17;;;;;;;15.15;6.22;;;;;;;20.21;100.00;102204.75;5020791;28;20057;-73
2023/08/21 01:19:45;;;;;;;13.70;5.47;;;;;;;20.10;100.00;102204.78;5030624;28;20030;-74
2023/08/21 01:22:11;;;;;;;10.90;5.38;;;;;;;19.70;100.00;102204.44;5031377;28;20047;-74
2023/08/21 01:24:37;;;;;;;9.75;5.20;;;;;;;19.67;100.00;102198.28;5046505;28;20051;-74
2023/08/21 01:27:03;;;;;;;11.70;5.15;;;;;;;19.54;100.00;102191.25;5031225;28;20087;-74
2023/08/21 01:29:29;;;;;;;12.35;4.80;;;;;;;19.61;100.00;102200.63;5064343;28;20562;-74
2023/08/21 01:32:48;;;;;;;14.95;5.88;;;;;;;19.64;100.00;102205.78;5029024;28;21037;-74
2023/08/21 01:35:14;;;;;;;6.80;4.70;;;;;;;19.63;100.00;102206.78;4988796;28;21044;-73
2023/08/21 01:37:40;;;;;;;16.98;5.38;;;;;;;19.57;100.00;102199.97;4982055;28;20247;-74
2023/08/21 01:40:07;;;;;;;10.63;5.32;;;;;;;19.49;100.00;102199.72;4991430;28;20077;-74
2023/08/21 01:42:32;;;;;;;12.40;5.25;;;;;;;19.38;100.00;102206.00;4990342;28;20092;-74
2023/08/21 01:44:58;;;;;;;10.00;5.90;;;;;;;19.21;100.00;102203.72;4971016;28;20050;-74
2023/08/21 01:47:23;;;;;;;11.38;5.57;;;;;;;19.27;100.00;102205.09;4988613;28;20132;-73
2023/08/21 01:49:52;;;;;;;10.07;5.53;;;;;;;19.18;100.00;102201.28;4987669;28;20114;-74
2023/08/21 01:52:18;;;;;;;11.48;5.47;;;;;;;19.14;100.00;102197.09;4984192;28;20050;-73
2023/08/21 01:54:44;;;;;;;10.63;4.22;;;;;;;19.03;100.00;102203.34;4989656;28;20027;-74
2023/08/21 01:57:09;;;;;;;15.82;4.80;;;;;;;18.96;100.00;102202.06;4988037;28;20053;-74
2023/08/21 01:59:35;;;;;;;9.52;4.85;;;;;;;18.92;100.00;102208.69;4988383;28;20608;-72
2023/08/21 02:02:01;;;;;;;12.75;5.68;;;;;;;18.87;100.00;102213.59;5005796;28;20038;-74
2023/08/21 02:04:26;;;;;;;12.43;4.88;;;;;;;18.93;100.00;102210.44;4989035;28;20038;-73
2023/08/21 02:06:52;;;;;;;9.98;5.88;;;;;;;18.91;100.00;102201.56;4987725;28;20042;-74
2023/08/21 02:09:17;;;;;;;10.50;5.20;;;;;;;18.91;100.00;102198.00;4988361;28;20058;-74
2023/08/21 02:11:43;;;;;;;8.32;5.05;;;;;;;18.98;100.00;102196.56;5019759;28;20769;-73
2023/08/21 02:14:08;;;;;;;13.95;5.18;;;;;;;19.01;100.00;102193.59;5007458;28;20036;-74
2023/08/21 02:16:34;;;;;;;10.18;5.00;;;;;;;19.06;100.00;102197.69;5024666;28;20077;-73
2023/08/21 02:18:59;;;;;;;11.77;5.55;;;;;;;19.07;100.00;102201.25;5028037;28;20073;-73
2023/08/21 02:21:25;;;;;;;16.83;5.43;;;;;;;19.15;100.00;102206.94;5016094;28;20093;-73
2023/08/21 02:23:50;;;;;;;15.45;5.72;;;;;;;19.11;100.00;102205.44;5028827;28;20949;-73
2023/08/21 02:26:16;;;;;;;14.07;5.38;;;;;;;19.08;100.00;102211.97;5028114;28;20056;-74
2023/08/21 02:28:43;;;;;;;14.25;5.30;;;;;;;18.94;100.00;102211.31;5030092;28;20068;-75
2023/08/21 02:31:12;;;;;;;11.50;5.32;;;;;;;18.97;100.00;102213.75;5025881;28;20042;-73
2023/08/21 02:33:37;;;;;;;9.95;5.03;;;;;;;19.07;100.00;102209.34;5028286;28;20043;-74
2023/08/21 02:36:03;;;;;;;12.30;5.30;;;;;;;19.09;100.00;102210.13;5036882;28;20903;-74
2023/08/21 02:38:29;;;;;;;13.68;5.55;;;;;;;19.08;100.00;102201.16;5027853;28;20120;-74
2023/08/21 02:40:56;;;;;;;12.82;6.15;;;;;;;19.10;100.00;102203.72;5029366;28;21139;-73
2023/08/21 02:43:21;;;;;;;7.55;5.70;;;;;;;19.07;100.00;102209.34;5028811;28;20072;-74
2023/08/21 02:45:47;;;;;;;14.00;6.70;;;;;;;19.00;100.00;102208.97;5040743;28;20115;-74
2023/08/21 02:48:12;;;;;;;8.73;5.07;;;;;;;18.93;100.00;102209.59;5044370;28;20025;-74
2023/08/21 02:50:38;;;;;;;10.52;5.68;;;;;;;18.91;100.00;102208.81;5027677;28;20037;-73
2023/08/21 02:53:04;;;;;;;10.40;5.05;;;;;;;18.85;100.00;102205.59;5037763;28;20379;-73
2023/08/21 02:55:29;;;;;;;12.50;5.18;;;;;;;18.84;100.00;102206.59;5060686;28;20045;-73
2023/08/21 02:57:55;;;;;;;6.68;4.72;;;;;;;18.76;100.00;102209.00;5029314;28;20060;-74
2023/08/21 03:00:20;;;;;;;14.70;5.55;;;;;;;18.74;100.00;102204.72;5028386;28;20042;-73
2023/08/21 03:02:46;;;;;;;12.63;5.30;;;;;;;18.66;100.00;102207.94;5024521;28;20038;-74
2023/08/21 03:05:13;;;;;;;8.38;5.65;;;;;;;18.62;100.00;102198.34;5027697;28;20116;-73
2023/08/21 03:07:39;;;;;;;12.18;5.03;;;;;;;18.54;100.00;102206.19;5028783;28;20120;-74
2023/08/21 03:10:06;;;;;;;11.77;5.50;;;;;;;18.58;100.00;102204.97;5028278;28;20096;-74
2023/08/21 03:12:31;;;;;;;10.20;5.70;;;;;;;18.60;100.00;102213.81;5028899;28;20059;-73
2023/08/21 03:14:57;;;;;;;15.85;6.32;;;;;;;18.58;100.00;102205.84;5025248;28;20037;-73
2023/08/21 03:17:24;;;;;;;12.93;5.78;;;;;;;18.57;100.00;102205.94;5025620;28;20037;-73
2023/08/21 03:19:49;;;;;;;13.52;6.85;;;;;;;18.59;100.00;102210.25;5025111;28;20037;-73
2023/08/21 03:22:15;;;;;;;12.50;5.78;;;;;;;18.47;100.00;102208.47;5042862;28;20478;-74
2023/08/21 03:24:42;;;;;;;6.88;5.03;;;;;;;18.41;100.00;102208.94;5042465;28;20083;-74
2023/08/21 03:27:07;;;;;;;11.45;5.28;;;;;;;18.43;100.00;102211.53;5028459;28;20642;-75
2023/08/21 03:29:33;;;;;;;14.35;6.07;;;;;;;18.47;100.00;102203.06;5026065;28;20038;-73
2023/08/21 03:31:59;;;;;;;13.70;6.18;;;;;;;18.44;100.00;102208.72;5043065;28;20037;-74
2023/08/21 03:34:25;;;;;;;10.55;5.18;;;;;;;18.33;100.00;102217.63;5033841;28;20329;-74
2023/08/21 03:36:54;;;;;;;6.95;4.40;;;;;;;18.26;100.00;102213.63;5027780;28;20104;-74
2023/08/21 03:39:20;;;;;;;9.70;5.03;;;;;;;18.26;100.00;102213.63;5028951;28;20875;-74
2023/08/21 03:41:46;;;;;;;10.77;5.60;;;;;;;18.26;100.00;102210.06;5033376;28;20037;-74
2023/08/21 03:44:12;;;;;;;12.57;5.82;;;;;;;18.26;100.00;102213.63;5029145;28;20037;-73
2023/08/21 03:46:38;;;;;;;9.90;4.53;;;;;;;18.31;100.00;102203.34;5027349;28;20037;-74
2023/08/21 03:49:04;;;;;;;7.53;4.95;;;;;;;18.36;100.00;102205.72;5043062;28;20997;-74
2023/08/21 03:51:29;;;;;;;10.05;6.15;;;;;;;18.35;100.00;102214.78;5030376;28;20895;-73
2023/08/21 03:53:55;;;;;;;19.90;7.05;;;;;;;18.43;100.00;102216.94;5037826;28;20044;-73
2023/08/21 03:56:23;;;;;;;11.32;5.90;;;;;;;18.35;100.00;102215.66;5028248;28;20136;-74
2023/08/21 03:58:49;;;;;;;8.20;5.28;;;;;;;18.48;100.00;102212.06;5031593;28;20040;-74
2023/08/21 04:01:14;;;;;;;13.57;6.18;;;;;;;18.56;100.00;102213.19;5041601;28;20043;-74
2023/08/21 04:03:40;;;;;;;10.80;5.90;;;;;;;18.60;100.00;102213.81;5031767;28;20033;-75
2023/08/21 04:06:06;;;;;;;16.77;7.32;;;;;;;18.63;100.00;102206.34;5026352;28;20045;-74
2023/08/21 04:08:33;;;;;;;9.15;5.53;;;;;;;18.52;100.00;102208.97;5042331;28;20033;-74
2023/08/21 04:11:00;;;;;;;13.07;5.60;;;;;;;18.49;100.00;102211.06;5029524;28;20063;-73
2023/08/21 04:13:25;;;;;;;8.30;6.70;;;;;;;18.58;100.00;102207.69;5027382;28;20065;-73
2023/08/21 04:15:54;;;;;;;11.98;6.78;;;;;;;18.59;100.00;102217.50;5020251;28;20051;-74
2023/08/21 04:18:19;;;;;;;20.13;7.80;;;;;;;18.64;100.00;102218.03;5031728;28;20039;-74
2023/08/21 04:20:48;;;;;;;12.52;6.88;;;;;;;18.64;100.00;102218.88;5031574;28;20032;-74
2023/08/21 04:23:14;;;;;;;11.82;7.22;;;;;;;18.65;100.00;102225.16;5032391;28;20965;-74
2023/08/21 04:25:39;;;;;;;12.77;7.10;;;;;;;18.57;100.00;102219.44;5028447;28;20046;-74
2023/08/21 04:28:07;;;;;;;11.52;6.45;;;;;;;18.54;100.00;102220.56;5061120;28;20889;-73
2023/08/21 04:30:33;;;;;;;11.75;6.68;;;;;;;18.49;100.00;102219.19;5027787;28;20033;-74
2023/08/21 04:33:00;;;;;;;16.48;6.57;;;;;;;18.07;100.00;102222.25;5027855;28;20037;-74
2023/08/21 04:35:25;;;;;;;15.65;6.78;;;;;;;18.23;100.00;102221.97;5026108;28;20025;-73
2023/08/21 04:37:51;;;;;;;11.20;6.22;;;;;;;18.25;100.00;102222.72;5026867;28;20064;-74
2023/08/21 04:40:21;;;;;;;14.55;6.70;;;;;;;18.29;100.00;102226.91;5010291;28;20030;-74
2023/08/21 04:42:47;;;;;;;13.60;7.65;;;;;;;18.36;100.00;102225.47;5027615;28;20042;-74
2023/08/21 04:45:13;;;;;;;16.92;8.40;;;;;;;18.41;100.00;102222.44;5014805;28;20037;-74
2023/08/21 04:47:39;;;;;;;13.57;7.28;;;;;;;18.52;100.00;102224.34;5030179;28;20022;-73
2023/08/21 04:50:05;;;;;;;23.30;8.75;;;;;;;18.67;100.00;102220.47;5028285;28;21122;-74
2023/08/21 04:52:31;;;;;;;17.17;7.75;;;;;;;18.73;100.00;102222.78;5042525;28;20108;-72
2023/08/21 04:54:56;;;;;;;15.23;7.03;;;;;;;18.80;100.00;102215.91;5028045;28;20053;-75
2023/08/21 04:57:22;;;;;;;10.38;6.30;;;;;;;18.81;100.00;102223.03;5014259;28;20479;-73
2023/08/21 04:59:48;;;;;;;14.45;7.18;;;;;;;18.82;100.00;102222.03;5043735;28;20033;-75
2023/08/21 05:02:14;;;;;;;14.50;6.93;;;;;;;18.80;100.00;102231.25;5031447;28;20126;-73
2023/08/21 05:04:39;;;;;;;10.48;6.65;;;;;;;18.88;100.00;102237.81;5030747;28;20033;-73
2023/08/21 05:07:06;;;;;;;14.48;6.72;;;;;;;19.00;100.00;102230.59;5031820;28;20725;-75
2023/08/21 05:09:34;;;;;;;11.95;6.82;;;;;;;19.07;100.00;102239.09;5045515;28;20045;-74
2023/08/21 05:12:00;;;;;;;10.77;6.45;;;;;;;19.14;100.00;102243.06;5041529;28;20059;-74
2023/08/21 05:14:25;;;;;;;18.60;7.75;;;;;;;19.22;100.00;102237.91;5043228;28;20140;-73
2023/08/21 05:16:51;;;;;;;16.15;8.00;;;;;;;19.21;100.00;102235.34;5033468;28;20038;-74
2023/08/21 05:19:18;;;;;;;16.20;7.55;;;;;;;19.27;100.00;102237.56;5032830;28;20045;-74
2023/08/21 05:21:44;;;;;;;16.95;7.70;;;;;;;19.31;100.00;102236.34;5036063;28;20057;-74
2023/08/21 05:24:10;;;;;;;18.08;8.38;;;;;;;19.34;100.00;102241.53;5037959;28;20029;-73
2023/08/21 05:26:39;;;;;;;20.38;7.72;;;;;;;19.39;100.00;102242.03;5051839;28;20041;-74
2023/08/21 05:29:05;;;;;;;14.75;8.02;;;;;;;19.39;100.00;102242.03;5026124;28;20075;-74
2023/08/21 05:31:30;;;;;;;16.35;7.07;;;;;;;19.51;100.00;102251.88;5041694;28;20042;-74
2023/08/21 05:33:56;;;;;;;16.73;8.23;;;;;;;19.45;100.00;102238.81;5073879;28;20290;-74
2023/08/21 05:36:22;;;;;;;11.18;7.10;;;;;;;19.51;100.00;102240.19;5037581;28;20426;-74
2023/08/21 05:38:48;;;;;;;10.10;6.32;;;;;;;19.51;100.00;102238.34;5037454;28;20088;-74
2023/08/21 05:41:17;;;;;;;14.80;7.93;;;;;;;19.59;100.00;102251.28;5033811;28;20041;-74
2023/08/21 05:43:43;;;;;;;18.95;8.02;;;;;;;19.75;100.00;102243.69;5040795;28;20088;-73
2023/08/21 05:46:09;;;;;;;14.02;7.60;;;;;;;19.94;100.00;102243.06;5050999;28;20160;-74
2023/08/21 05:48:35;;;;;;;17.88;7.07;;;;;;;20.09;100.00;102249.09;5045339;28;20037;-73
2023/08/21 05:51:01;;;;;;;13.88;7.50;;;;;;;20.24;100.00;102250.56;5052738;28;20777;-74
2023/08/21 05:53:26;;;;;;;13.35;7.53;;;;;;;20.54;100.00;102252.63;5039259;28;20029;-74
2023/08/21 05:55:53;;;;;;;17.65;7.20;;;;;;;20.88;100.00;102247.94;5046770;28;20096;-73
2023/08/21 05:58:19;;;;;;;11.38;6.45;;;;;;;21.24;100.00;102247.63;5068183;28;20964;-73
2023/08/21 06:00:46;;;;;;;13.95;6.03;;;;;;;21.28;100.00;102244.50;5052668;28;20030;-73
2023/08/21 06:03:12;;;;;;;9.75;6.60;;;;;;;21.29;100.00;102248.97;5028260;28;20140;-75
2023/08/21 06:06:03;;;;;;;16.67;6.45;;;;;;;20.78;100.00;102254.25;5039268;28;20160;-73
2023/08/21 06:08:29;;;;;;;21.30;7.18;;;;;;;20.77;100.00;102258.81;5026826;28;20034;-75
2023/08/21 06:10:55;;;;;;;10.05;5.30;;;;;;;20.76;100.00;102257.09;5031123;28;20046;-74
2023/08/21 06:13:21;;;;;;;15.60;5.53;;;;;;;20.87;100.00;102254.31;5033024;28;20158;-74
2023/08/21 06:15:49;;;;;;;11.57;5.57;;;;;;;21.00;100.00;102258.72;5031810;28;20029;-74
2023/08/21 06:18:15;;;;;;;16.60;5.93;;;;;;;21.28;100.00;102249.06;5028287;28;20045;-73
2023/08/21 06:20:44;;;;;;;16.45;6.07;;;;;;;21.52;100.00;102244.25;5032454;28;20123;-74
2023/08/21 06:23:10;;;;;;;10.68;5.25;;;;;;;21.35;100.00;102251.16;5030798;28;20116;-74
2023/08/21 06:25:36;;;;;;;11.65;5.78;;;;;;;21.42;100.00;102257.78;5045505;28;20041;-75
2023/08/21 06:28:02;;;;;;;12.57;5.93;;;;;;;21.14;100.00;102262.00;5013150;28;20034;-74
2023/08/21 06:30:28;;;;;;;20.25;6.50;;;;;;;21.29;100.00;102265.25;5030362;28;20040;-74
2023/08/21 06:32:54;;;;;;;14.48;5.82;;;;;;;21.67;100.00;102261.06;5028392;28;20037;-74
2023/08/21 06:35:20;;;;;;;12.13;4.88;;;;;;;21.70;100.00;102260.81;5043514;28;20049;-74
2023/08/21 06:37:45;;;;;;;9.30;5.03;;;;;;;21.60;100.00;102262.59;5027978;28;20457;-74
2023/08/21 06:40:11;;;;;;;15.32;5.78;;;;;;;21.53;100.00;102258.69;5024061;28;20030;-73
2023/08/21 06:42:37;;;;;;;10.65;4.82;;;;;;;21.53;100.00;102264.13;5022309;28;20037;-74
2023/08/21 06:45:07;;;;;;;14.80;5.10;;;;;;;21.19;100.00;102259.75;5037586;28;20140;-73
2023/08/21 06:47:33;;;;;;;11.02;5.10;;;;;;;21.49;100.00;102249.09;5028834;28;20044;-73
2023/08/21 06:50:00;;;;;;;16.77;4.75;;;;;;;21.53;100.00;102253.25;5018938;28;20038;-74
2023/08/21 06:52:26;;;;;;;10.93;5.03;;;;;;;21.91;100.00;102250.75;5027235;28;20038;-74
2023/08/21 06:54:52;;;;;;;14.52;4.88;;;;;;;22.15;100.00;102252.31;5029091;28;20033;-74
2023/08/21 06:57:17;;;;;;;10.57;4.70;;;;;;;22.48;100.00;102256.50;5029099;28;20041;-74
2023/08/21 06:59:43;;;;;;;14.65;5.15;;;;;;;22.84;100.00;102255.00;5028372;28;20033;-74
2023/08/21 07:02:08;;;;;;;15.32;5.68;;;;;;;22.99;97.81;102260.88;5028123;28;20045;-74
2023/08/21 07:04:34;;;;;;;12.10;5.15;;;;;;;22.85;96.78;102258.56;5028150;28;20037;-74
2023/08/21 07:06:59;;;;;;;11.35;4.90;;;;;;;23.13;99.79;102259.59;5027866;28;20052;-73
2023/08/21 07:09:25;;;;;;;14.45;5.38;;;;;;;23.06;99.95;102262.03;5023623;28;20053;-73
2023/08/21 07:11:50;;;;;;;15.65;5.07;;;;;;;22.43;99.27;102253.34;5021705;28;20140;-74
2023/08/21 07:14:17;;;;;;;16.00;5.57;;;;;;;22.63;100.00;102262.41;5023496;28;20155;-74
2023/08/21 07:16:43;;;;;;;15.48;5.40;;;;;;;22.80;100.00;102261.72;5026222;28;20041;-74
2023/08/21 07:19:09;;;;;;;12.70;5.10;;;;;;;23.13;98.78;102256.84;5026650;28;20041;-74
2023/08/21 07:21:36;;;;;;;11.40;4.85;;;;;;;23.32;98.75;102264.16;5024157;28;20037;-74
2023/08/21 07:24:05;;;;;;;14.40;4.50;;;;;;;23.18;97.89;102260.88;5027822;28;20033;-74
2023/08/21 07:26:31;;;;;;;13.52;4.85;;;;;;;23.20;96.10;102261.59;5028231;28;20048;-73
2023/08/21 07:28:56;;;;;;;10.45;4.60;;;;;;;23.24;95.92;102271.19;5025181;28;20069;-74
2023/08/21 07:31:22;;;;;;;15.82;4.25;;;;;;;23.32;95.17;102262.28;5026716;28;20038;-75
2023/08/21 07:33:48;;;;;;;12.40;4.43;;;;;;;23.21;95.40;102265.16;5027746;28;20065;-74
2023/08/21 07:36:17;;;;;;;10.63;3.63;;;;;;;23.25;92.62;102270.19;5028690;28;20042;-73
2023/08/21 07:38:45;;;;;;;11.57;3.60;;;;;;;23.32;95.56;102264.16;5026563;28;20033;-73
2023/08/21 07:41:12;;;;;;;9.30;3.55;;;;;;;23.25;92.64;102263.88;5028207;28;20224;-73
2023/08/21 07:43:41;;;;;;;7.38;3.17;;;;;;;23.30;90.51;102266.16;5042196;28;20044;-73
2023/08/21 07:46:09;;;;;;;13.10;3.53;;;;;;;23.65;89.95;102262.81;5026272;28;20049;-74
2023/08/21 07:48:35;;;;;;;8.50;3.00;;;;;;;23.95;88.31;102261.72;5027030;28;20038;-74
2023/08/21 07:51:02;;;;;;;6.82;3.03;;;;;;;24.19;80.79;102258.41;5026724;28;20064;-74
2023/08/21 07:53:27;;;;;;;8.48;2.78;;;;;;;24.34;80.92;102262.34;5037260;28;20038;-73
2023/08/21 07:55:53;;;;;;;6.85;2.72;;;;;;;24.79;78.50;102266.94;5026663;28;20140;-73
2023/08/21 07:58:19;;;;;;;7.07;3.05;;;;;;;24.72;78.85;102266.72;5027299;28;20046;-74
2023/08/21 08:00:45;;;;;;;12.20;3.65;;;;;;;24.62;77.46;102267.81;5027365;28;20034;-73
2023/08/21 08:03:11;;;;;;;7.03;2.63;;;;;;;24.67;76.20;102274.53;5022115;28;20037;-73
2023/08/21 08:05:38;;;;;;;8.93;2.85;;;;;;;25.25;76.81;102274.06;5017479;28;20092;-73
2023/08/21 08:08:03;;;;;;;14.57;2.97;;;;;;;24.91;76.52;102273.91;5027389;28;20033;-73
2023/08/21 08:10:29;;;;;;;11.18;3.28;;;;;;;24.93;75.85;102273.75;5025112;28;20057;-73
2023/08/21 08:12:55;;;;;;;10.48;2.53;;;;;;;24.93;75.36;102281.94;5027110;28;20816;-73
2023/08/21 08:15:21;;;;;;;3.90;2.35;;;;;;;24.41;76.99;102274.41;5026043;28;20041;-74
2023/08/21 08:17:46;;;;;;;8.35;2.40;;;;;;;24.92;76.63;102278.34;5026293;28;20113;-73
2023/08/21 08:20:13;;;;;;;10.05;2.67;;;;;;;25.49;75.16;102273.38;5028179;28;20034;-73
2023/08/21 08:22:41;;;;;;;6.90;2.42;;;;;;;25.29;73.76;102274.59;5026822;28;20034;-73
2023/08/21 08:25:07;;;;;;;12.43;2.83;;;;;;;25.14;73.78;102282.50;5023809;28;21136;-73
2023/08/21 08:27:33;;;;;;;6.78;2.45;;;;;;;25.66;73.55;102268.03;5027779;28;20044;-73
2023/08/21 08:29:58;;;;;;;8.05;2.55;;;;;;;25.90;71.05;102270.06;5027152;28;20044;-73
2023/08/21 08:32:25;;;;;;;9.25;2.80;;;;;;;25.65;71.96;102266.31;5028067;28;20034;-75
2023/08/21 08:34:52;;;;;;;11.25;2.85;;;;;;;25.28;72.89;102275.63;5029286;28;20032;-74
2023/08/21 08:37:18;;;;;;;9.82;2.50;;;;;;;25.07;73.06;102278.69;5043861;28;20143;-73
2023/08/21 08:39:43;;;;;;;9.60;2.95;;;;;;;25.92;73.82;102268.03;5031010;28;20938;-72
2023/08/21 08:42:10;;;;;;;9.07;2.80;;;;;;;25.85;75.06;102276.00;5032772;28;20033;-72
2023/08/21 08:44:38;;;;;;;8.77;2.85;;;;;;;25.96;69.88;102263.97;5026366;28;20040;-73
2023/08/21 08:47:03;;;;;;;10.80;2.53;;;;;;;26.53;69.82;102267.78;5029720;28;20052;-72
2023/08/21 08:49:30;;;;;;;11.43;2.92;;;;;;;26.31;73.41;102274.72;5030496;28;20916;-72
2023/08/21 08:51:57;;;;;;;12.93;3.22;;;;;;;26.77;70.20;102269.72;5031656;28;20145;-72
2023/08/21 08:54:25;;;;;;;12.02;3.20;;;;;;;26.50;69.39;102273.56;5030276;28;20041;-73
2023/08/21 08:56:51;;;;;;;9.30;2.58;;;;;;;26.82;66.67;102280.16;5030177;28;20147;-73
2023/08/21 08:59:17;;;;;;;7.30;2.50;;;;;;;26.73;68.28;102270.22;5017518;28;20030;-73
2023/08/21 09:01:43;;;;;;;9.30;2.47;;;;;;;26.04;69.46;102270.31;5028339;28;20858;-72
2023/08/21 09:04:08;;;;;;;8.95;2.78;;;;;;;25.67;71.21;102277.94;5029745;28;20036;-73
2023/08/21 09:06:34;;;;;;;10.57;3.00;;;;;;;26.17;71.25;102269.88;5030749;28;20912;-72
2023/08/21 09:09:00;;;;;;;7.72;2.60;;;;;;;26.45;68.78;102275.09;5030270;28;20045;-72
2023/08/21 09:11:26;;;;;;;9.50;2.28;;;;;;;26.69;65.86;102266.09;5028502;28;21138;-73
2023/08/21 09:13:53;;;;;;;10.68;3.10;;;;;;;26.37;67.93;102275.91;5025151;28;20034;-73
2023/08/21 09:16:20;;;;;;;7.70;2.63;;;;;;;26.50;68.51;102268.09;5029107;28;20042;-72
2023/08/21 09:18:58;;;;;;;15.60;3.20;;;;;;;26.45;67.20;102273.22;5023102;28;20072;-72
2023/08/21 09:21:27;;;;;;;12.18;2.83;;;;;;;26.67;65.00;102270.91;5030993;28;21139;-73
2023/08/21 09:23:58;;;;;;;10.23;2.55;;;;;;;27.04;67.79;102268.53;5028354;28;20044;-73
2023/08/21 09:26:25;;;;;;;7.70;2.38;;;;;;;26.88;66.55;102273.16;5030065;28;20084;-72
2023/08/21 09:28:52;;;;;;;11.27;2.83;;;;;;;26.55;64.29;102271.19;5031657;28;20060;-73
2023/08/21 09:31:30;;;;;;;9.57;2.92;;;;;;;26.17;66.86;102275.34;5031258;28;20119;-73
2023/08/21 09:33:57;;;;;;;8.55;2.20;;;;;;;26.35;68.21;102273.31;5025648;28;20045;-72
2023/08/21 09:36:22;;;;;;;7.18;2.50;;;;;;;26.35;68.82;102267.00;5022860;28;20305;-72
2023/08/21 09:38:48;;;;;;;9.63;2.10;;;;;;;26.05;65.62;102263.81;5029998;28;20529;-73
2023/08/21 09:41:13;;;;;;;8.85;2.22;;;;;;;25.86;64.25;102261.34;5030255;28;20744;-72
2023/08/21 09:43:45;;;;;;;5.53;1.98;;;;;;;25.48;66.63;102268.94;5029440;28;20034;-72
2023/08/21 09:46:16;;;;;;;8.75;2.58;;;;;;;25.48;66.43;102266.19;5028399;28;20044;-73
2023/08/21 09:48:45;;;;;;;10.23;2.80;;;;;;;25.39;67.98;102274.50;5028927;28;20034;-72
2023/08/21 09:51:11;;;;;;;8.25;2.55;;;;;;;25.75;66.37;102275.28;5029616;28;20036;-72
2023/08/21 09:53:37;;;;;;;9.70;3.35;;;;;;;25.68;67.31;102272.31;5028839;28;20038;-72
2023/08/21 09:56:03;;;;;;;15.07;3.72;;;;;;;25.78;68.26;102274.97;5028798;28;20100;-72
2023/08/21 09:58:30;;;;;;;9.13;2.67;;;;;;;25.77;67.70;102268.66;5030320;28;20228;-73
2023/08/21 10:00:59;;;;;;;8.55;2.45;;;;;;;25.52;70.33;102269.47;5026367;28;20132;-73
2023/08/21 10:03:26;;;;;;;10.55;2.42;;;;;;;25.82;67.35;102269.00;5025818;28;20553;-74
2023/08/21 10:05:55;;;;;;;10.23;2.83;;;;;;;25.95;67.34;102265.81;5028272;28;20056;-73
2023/08/21 10:08:25;;;;;;;8.48;2.03;;;;;;;25.89;67.24;102254.69;5026969;28;20958;-73
2023/08/21 10:10:51;;;;;;;11.75;2.35;;;;;;;26.12;64.91;102258.56;5027466;28;20050;-72
2023/08/21 10:13:18;;;;;;;6.55;2.25;;;;;;;26.22;66.70;102256.56;5027471;28;20046;-72
2023/08/21 10:15:44;;;;;;;8.43;2.00;;;;;;;26.22;64.56;102253.81;5026382;28;20037;-72
2023/08/21 10:18:25;;;;;;;11.20;2.22;;;;;;;26.56;66.10;102251.03;5035423;28;21092;-73
2023/08/21 10:20:52;;;;;;;8.75;2.38;;;;;;;26.28;63.22;102244.09;5022321;28;20048;-72
2023/08/21 10:23:25;;;;;;;8.85;3.10;;;;;;;26.89;64.54;102242.84;5026213;28;20127;-72
2023/08/21 10:25:58;;;;;;;7.82;2.47;;;;;;;26.90;64.84;102235.50;5027796;28;20081;-72
2023/08/21 10:28:23;;;;;;;9.18;2.45;;;;;;;26.68;66.62;102243.34;5025356;28;20037;-72
2023/08/21 10:30:49;;;;;;;10.38;2.58;;;;;;;26.54;63.87;102239.38;5027307;28;20578;-73
2023/08/21 10:33:15;;;;;;;8.48;2.90;;;;;;;26.28;64.71;102238.63;5024523;28;20025;-72
2023/08/21 10:35:40;;;;;;;13.13;2.50;;;;;;;26.32;64.83;102234.53;5025243;28;20729;-72
2023/08/21 10:38:12;;;;;;;10.10;2.53;;;;;;;26.29;66.88;102240.31;5026639;28;20140;-72
2023/08/21 10:40:38;;;;;;;;;;;;;;;26.33;68.35;102237.09;5027255;28;20045;-73
2023/08/21 10:43:04;;;;;;;12.00;3.17;;;;;;;26.30;66.61;102239.28;5026758;28;20151;-72
2023/08/21 10:45:30;;;;;;;10.95;2.33;;;;;;;26.67;66.42;102227.97;5027034;28;20941;-72
2023/08/21 10:47:59;;;;;;;10.40;2.72;;;;;;;26.53;65.51;102236.84;5022465;28;20167;-72
2023/08/21 10:50:26;;;;;;;8.82;2.70;;;;;;;26.68;64.39;102234.28;5027266;28;20029;-73
2023/08/21 10:52:53;;;;;;;6.95;2.28;;;;;;;26.84;64.67;102228.81;5021704;28;20053;-72
2023/08/21 10:55:19;;;;;;;8.77;2.50;;;;;;;26.81;61.26;102231.91;5024630;28;20048;-72
2023/08/21 10:57:49;;;;;;;6.65;2.45;;;;;;;27.10;60.88;102235.00;5025862;28;20128;-72
2023/08/21 11:00:20;;;;;;;10.93;2.60;;;;;;;27.12;59.47;102234.00;5021450;28;20057;-71
2023/08/21 11:02:47;;;;;;;16.00;2.70;;;;;;;26.94;63.60;102228.66;5022203;28;20145;-72
2023/08/21 11:05:14;;;;;;;9.43;2.35;;;;;;;26.94;63.92;102236.88;5026049;28;20059;-72
2023/08/21 11:07:45;;;;;;;12.70;3.13;;;;;;;26.93;64.33;102232.44;5026645;28;20040;-72
2023/08/21 11:10:13;;;;;;;9.23;2.83;;;;;;;27.23;61.98;102241.88;5009748;28;20037;-72
2023/08/21 11:12:48;;;;;;;8.93;3.30;;;;;;;27.16;61.06;102244.44;5027444;28;20088;-72